sensor_id;sensor_type;location;lat;lon;timestamp;P1;durP1;ratioP1;P2;durP2;ratioP2
18224;SDS011;9237;48.590;8.854;2022-07-25T00:00:36;0.60;;;0.60;;
18224;SDS011;9237;48.590;8.854;2022-07-25T00:03:03;0.60;;;0.60;;
18224;SDS011;9237;48.590;8.854;2022-07-25T00:05:30;0.60;;;0.60;;
18224;SDS011;9237;48.590;8.854;2022-07-25T00:07:57;0.50;;;0.50;;
18224;SDS011;9237;48.590;8.854;2022-07-25T00:10:24;0.60;;;0.60;;
18224;SDS011;9237;48.590;8.854;2022-07-25T00:12:51;0.50;;;0.50;;
18224;SDS011;9237;48.590;8.854;2022-07-25T00:15:18;0.60;;;0.60;;
18224;SDS011;9237;48.590;8.854;2022-07-25T00:17:46;0.60;;;0.60;;
18224;SDS011;9237;48.590;8.854;2022-07-25T00:20:13;0.60;;;0.60;;
18224;SDS011;9237;48.590;8.854;2022-07-25T00:22:40;0.60;;;0.60;;
18224;SDS011;9237;48.590;8.854;2022-07-25T00:25:08;0.60;;;0.60;;
18224;SDS011;9237;48.590;8.854;2022-07-25T00:27:35;0.60;;;0.60;;
18224;SDS011;9237;48.590;8.854;2022-07-25T00:30:02;0.60;;;0.60;;
18224;SDS011;9237;48.590;8.854;2022-07-25T00:32:30;0.60;;;0.60;;
18224;SDS011;9237;48.590;8.854;2022-07-25T00:34:58;0.53;;;0.53;;
18224;SDS011;9237;48.590;8.854;2022-07-25T00:37:25;0.60;;;0.60;;
18224;SDS011;9237;48.590;8.854;2022-07-25T00:39:52;0.50;;;0.50;;
18224;SDS011;9237;48.590;8.854;2022-07-25T00:42:18;0.50;;;0.50;;
18224;SDS011;9237;48.590;8.854;2022-07-25T00:44:48;0.50;;;0.50;;
18224;SDS011;9237;48.590;8.854;2022-07-25T00:47:15;0.60;;;0.60;;
18224;SDS011;9237;48.590;8.854;2022-07-25T00:49:42;0.60;;;0.60;;
18224;SDS011;9237;48.590;8.854;2022-07-25T00:52:10;0.50;;;0.50;;
18224;SDS011;9237;48.590;8.854;2022-07-25T00:54:37;0.50;;;0.50;;
18224;SDS011;9237;48.590;8.854;2022-07-25T00:57:04;0.60;;;0.60;;
18224;SDS011;9237;48.590;8.854;2022-07-25T00:59:31;0.60;;;0.60;;
18224;SDS011;9237;48.590;8.854;2022-07-25T01:01:58;0.50;;;0.50;;
18224;SDS011;9237;48.590;8.854;2022-07-25T01:04:25;0.60;;;0.60;;
18224;SDS011;9237;48.590;8.854;2022-07-25T01:06:52;0.60;;;0.60;;
18224;SDS011;9237;48.590;8.854;2022-07-25T01:09:21;0.60;;;0.60;;
18224;SDS011;9237;48.590;8.854;2022-07-25T01:11:48;0.60;;;0.60;;
18224;SDS011;9237;48.590;8.854;2022-07-25T01:14:15;0.60;;;0.60;;
18224;SDS011;9237;48.590;8.854;2022-07-25T01:16:42;0.60;;;0.60;;
18224;SDS011;9237;48.590;8.854;2022-07-25T01:19:09;0.60;;;0.60;;
18224;SDS011;9237;48.590;8.854;2022-07-25T01:21:38;0.70;;;0.70;;
18224;SDS011;9237;48.590;8.854;2022-07-25T01:24:06;0.60;;;0.60;;
18224;SDS011;9237;48.590;8.854;2022-07-25T01:26:33;0.60;;;0.60;;
18224;SDS011;9237;48.590;8.854;2022-07-25T01:29:01;0.70;;;0.70;;
18224;SDS011;9237;48.590;8.854;2022-07-25T01:31:28;0.70;;;0.70;;
18224;SDS011;9237;48.590;8.854;2022-07-25T01:33:55;0.60;;;0.60;;
18224;SDS011;9237;48.590;8.854;2022-07-25T01:36:22;0.60;;;0.60;;
18224;SDS011;9237;48.590;8.854;2022-07-25T01:38:50;0.70;;;0.70;;
18224;SDS011;9237;48.590;8.854;2022-07-25T01:41:17;0.70;;;0.70;;
18224;SDS011;9237;48.590;8.854;2022-07-25T01:43:44;0.60;;;0.60;;
18224;SDS011;9237;48.590;8.854;2022-07-25T01:46:11;0.60;;;0.60;;
18224;SDS011;9237;48.590;8.854;2022-07-25T01:48:39;0.70;;;0.70;;
18224;SDS011;9237;48.590;8.854;2022-07-25T01:51:06;0.70;;;0.70;;
18224;SDS011;9237;48.590;8.854;2022-07-25T01:53:34;0.70;;;0.70;;
18224;SDS011;9237;48.590;8.854;2022-07-25T01:56:02;0.60;;;0.60;;
18224;SDS011;9237;48.590;8.854;2022-07-25T01:58:29;0.70;;;0.70;;
18224;SDS011;9237;48.590;8.854;2022-07-25T02:00:57;0.60;;;0.60;;
18224;SDS011;9237;48.590;8.854;2022-07-25T02:03:23;0.70;;;0.70;;
18224;SDS011;9237;48.590;8.854;2022-07-25T02:05:56;0.60;;;0.60;;
18224;SDS011;9237;48.590;8.854;2022-07-25T02:08:24;0.70;;;0.70;;
18224;SDS011;9237;48.590;8.854;2022-07-25T02:10:51;0.70;;;0.70;;
18224;SDS011;9237;48.590;8.854;2022-07-25T02:13:19;0.70;;;0.70;;
18224;SDS011;9237;48.590;8.854;2022-07-25T02:15:46;0.70;;;0.70;;
18224;SDS011;9237;48.590;8.854;2022-07-25T02:18:13;0.70;;;0.70;;
18224;SDS011;9237;48.590;8.854;2022-07-25T02:20:40;0.70;;;0.70;;
18224;SDS011;9237;48.590;8.854;2022-07-25T02:23:07;0.70;;;0.70;;
18224;SDS011;9237;48.590;8.854;2022-07-25T02:25:34;0.70;;;0.70;;
18224;SDS011;9237;48.590;8.854;2022-07-25T02:28:01;0.60;;;0.60;;
18224;SDS011;9237;48.590;8.854;2022-07-25T02:30:30;0.60;;;0.60;;
18224;SDS011;9237;48.590;8.854;2022-07-25T02:32:56;0.60;;;0.60;;
18224;SDS011;9237;48.590;8.854;2022-07-25T02:35:24;0.50;;;0.50;;
18224;SDS011;9237;48.590;8.854;2022-07-25T02:37:51;0.60;;;0.60;;
18224;SDS011;9237;48.590;8.854;2022-07-25T02:40:17;0.60;;;0.60;;
18224;SDS011;9237;48.590;8.854;2022-07-25T02:42:44;0.60;;;0.60;;
18224;SDS011;9237;48.590;8.854;2022-07-25T02:45:11;0.60;;;0.60;;
18224;SDS011;9237;48.590;8.854;2022-07-25T02:47:40;0.60;;;0.60;;
18224;SDS011;9237;48.590;8.854;2022-07-25T02:50:07;0.60;;;0.60;;
18224;SDS011;9237;48.590;8.854;2022-07-25T02:52:34;0.60;;;0.60;;
18224;SDS011;9237;48.590;8.854;2022-07-25T02:55:01;0.60;;;0.60;;
18224;SDS011;9237;48.590;8.854;2022-07-25T02:57:28;0.60;;;0.60;;
18224;SDS011;9237;48.590;8.854;2022-07-25T02:59:55;0.60;;;0.60;;
18224;SDS011;9237;48.590;8.854;2022-07-25T03:02:22;0.60;;;0.60;;
18224;SDS011;9237;48.590;8.854;2022-07-25T03:04:50;0.60;;;0.60;;
18224;SDS011;9237;48.590;8.854;2022-07-25T03:07:17;0.60;;;0.60;;
18224;SDS011;9237;48.590;8.854;2022-07-25T03:09:44;0.60;;;0.60;;
18224;SDS011;9237;48.590;8.854;2022-07-25T03:12:11;0.60;;;0.60;;
18224;SDS011;9237;48.590;8.854;2022-07-25T03:14:38;0.60;;;0.60;;
18224;SDS011;9237;48.590;8.854;2022-07-25T03:17:06;0.60;;;0.60;;
18224;SDS011;9237;48.590;8.854;2022-07-25T03:19:33;0.60;;;0.60;;
18224;SDS011;9237;48.590;8.854;2022-07-25T03:22:01;0.70;;;0.70;;
18224;SDS011;9237;48.590;8.854;2022-07-25T03:24:28;0.60;;;0.60;;
18224;SDS011;9237;48.590;8.854;2022-07-25T03:26:55;0.60;;;0.60;;
18224;SDS011;9237;48.590;8.854;2022-07-25T03:29:22;0.60;;;0.60;;
18224;SDS011;9237;48.590;8.854;2022-07-25T03:31:49;0.60;;;0.60;;
18224;SDS011;9237;48.590;8.854;2022-07-25T03:34:15;0.60;;;0.60;;
18224;SDS011;9237;48.590;8.854;2022-07-25T03:36:42;0.60;;;0.60;;
18224;SDS011;9237;48.590;8.854;2022-07-25T03:39:11;0.70;;;0.70;;
18224;SDS011;9237;48.590;8.854;2022-07-25T03:41:38;0.60;;;0.60;;
18224;SDS011;9237;48.590;8.854;2022-07-25T03:44:05;0.60;;;0.60;;
18224;SDS011;9237;48.590;8.854;2022-07-25T03:46:32;0.60;;;0.60;;
18224;SDS011;9237;48.590;8.854;2022-07-25T03:48:59;0.60;;;0.60;;
18224;SDS011;9237;48.590;8.854;2022-07-25T03:51:26;0.60;;;0.60;;
18224;SDS011;9237;48.590;8.854;2022-07-25T03:53:53;0.60;;;0.60;;
18224;SDS011;9237;48.590;8.854;2022-07-25T03:56:32;0.60;;;0.60;;
18224;SDS011;9237;48.590;8.854;2022-07-25T03:59:02;0.60;;;0.60;;
18224;SDS011;9237;48.590;8.854;2022-07-25T04:01:29;0.60;;;0.60;;
18224;SDS011;9237;48.590;8.854;2022-07-25T04:03:57;0.60;;;0.60;;
18224;SDS011;9237;48.590;8.854;2022-07-25T04:06:24;0.60;;;0.60;;
18224;SDS011;9237;48.590;8.854;2022-07-25T04:08:51;0.60;;;0.60;;
18224;SDS011;9237;48.590;8.854;2022-07-25T04:11:20;0.60;;;0.60;;
18224;SDS011;9237;48.590;8.854;2022-07-25T04:13:48;0.60;;;0.60;;
18224;SDS011;9237;48.590;8.854;2022-07-25T04:16:16;0.60;;;0.60;;
18224;SDS011;9237;48.590;8.854;2022-07-25T04:18:44;0.60;;;0.60;;
18224;SDS011;9237;48.590;8.854;2022-07-25T04:21:11;0.60;;;0.60;;
18224;SDS011;9237;48.590;8.854;2022-07-25T04:23:38;0.60;;;0.60;;
18224;SDS011;9237;48.590;8.854;2022-07-25T04:26:05;0.60;;;0.60;;
18224;SDS011;9237;48.590;8.854;2022-07-25T04:28:32;0.60;;;0.60;;
18224;SDS011;9237;48.590;8.854;2022-07-25T04:31:00;0.60;;;0.60;;
18224;SDS011;9237;48.590;8.854;2022-07-25T04:33:27;0.60;;;0.60;;
18224;SDS011;9237;48.590;8.854;2022-07-25T04:35:54;0.60;;;0.60;;
18224;SDS011;9237;48.590;8.854;2022-07-25T04:38:21;0.60;;;0.60;;
18224;SDS011;9237;48.590;8.854;2022-07-25T04:40:49;0.60;;;0.60;;
18224;SDS011;9237;48.590;8.854;2022-07-25T04:43:16;0.60;;;0.60;;
18224;SDS011;9237;48.590;8.854;2022-07-25T04:45:44;0.60;;;0.60;;
18224;SDS011;9237;48.590;8.854;2022-07-25T04:48:13;0.60;;;0.60;;
18224;SDS011;9237;48.590;8.854;2022-07-25T04:50:39;0.60;;;0.60;;
18224;SDS011;9237;48.590;8.854;2022-07-25T04:53:06;0.60;;;0.60;;
18224;SDS011;9237;48.590;8.854;2022-07-25T04:55:33;0.60;;;0.60;;
18224;SDS011;9237;48.590;8.854;2022-07-25T04:58:02;0.60;;;0.60;;
18224;SDS011;9237;48.590;8.854;2022-07-25T05:00:29;0.60;;;0.60;;
18224;SDS011;9237;48.590;8.854;2022-07-25T05:02:56;0.60;;;0.60;;
18224;SDS011;9237;48.590;8.854;2022-07-25T05:05:25;0.60;;;0.60;;
18224;SDS011;9237;48.590;8.854;2022-07-25T05:07:54;0.60;;;0.60;;
18224;SDS011;9237;48.590;8.854;2022-07-25T05:10:23;0.60;;;0.60;;
18224;SDS011;9237;48.590;8.854;2022-07-25T05:12:50;0.60;;;0.60;;
18224;SDS011;9237;48.590;8.854;2022-07-25T05:15:18;0.60;;;0.60;;
18224;SDS011;9237;48.590;8.854;2022-07-25T05:17:45;0.60;;;0.60;;
18224;SDS011;9237;48.590;8.854;2022-07-25T05:20:12;0.50;;;0.50;;
18224;SDS011;9237;48.590;8.854;2022-07-25T05:22:41;0.50;;;0.50;;
18224;SDS011;9237;48.590;8.854;2022-07-25T05:25:08;0.50;;;0.50;;
18224;SDS011;9237;48.590;8.854;2022-07-25T05:27:36;0.50;;;0.50;;
18224;SDS011;9237;48.590;8.854;2022-07-25T05:30:04;0.60;;;0.60;;
18224;SDS011;9237;48.590;8.854;2022-07-25T05:32:32;0.50;;;0.50;;
18224;SDS011;9237;48.590;8.854;2022-07-25T05:34:59;0.50;;;0.50;;
18224;SDS011;9237;48.590;8.854;2022-07-25T05:37:26;0.50;;;0.50;;
18224;SDS011;9237;48.590;8.854;2022-07-25T05:39:54;0.50;;;0.50;;
18224;SDS011;9237;48.590;8.854;2022-07-25T05:42:21;0.50;;;0.50;;
18224;SDS011;9237;48.590;8.854;2022-07-25T05:44:48;0.50;;;0.50;;
18224;SDS011;9237;48.590;8.854;2022-07-25T05:47:15;0.50;;;0.50;;
18224;SDS011;9237;48.590;8.854;2022-07-25T05:49:42;0.50;;;0.50;;
18224;SDS011;9237;48.590;8.854;2022-07-25T05:52:09;0.50;;;0.50;;
18224;SDS011;9237;48.590;8.854;2022-07-25T05:54:35;0.50;;;0.50;;
18224;SDS011;9237;48.590;8.854;2022-07-25T05:57:04;0.50;;;0.50;;
18224;SDS011;9237;48.590;8.854;2022-07-25T05:59:31;0.50;;;0.50;;
18224;SDS011;9237;48.590;8.854;2022-07-25T06:01:57;0.40;;;0.40;;
18224;SDS011;9237;48.590;8.854;2022-07-25T06:04:26;0.50;;;0.50;;
18224;SDS011;9237;48.590;8.854;2022-07-25T06:06:53;0.50;;;0.50;;
18224;SDS011;9237;48.590;8.854;2022-07-25T06:09:20;0.50;;;0.50;;
18224;SDS011;9237;48.590;8.854;2022-07-25T06:11:47;0.50;;;0.50;;
18224;SDS011;9237;48.590;8.854;2022-07-25T06:14:16;0.50;;;0.50;;
18224;SDS011;9237;48.590;8.854;2022-07-25T06:16:43;0.40;;;0.40;;
18224;SDS011;9237;48.590;8.854;2022-07-25T06:19:10;0.50;;;0.50;;
18224;SDS011;9237;48.590;8.854;2022-07-25T06:21:37;0.50;;;0.50;;
18224;SDS011;9237;48.590;8.854;2022-07-25T06:24:04;0.40;;;0.40;;
18224;SDS011;9237;48.590;8.854;2022-07-25T06:26:31;0.40;;;0.40;;
18224;SDS011;9237;48.590;8.854;2022-07-25T06:29:00;0.47;;;0.47;;
18224;SDS011;9237;48.590;8.854;2022-07-25T06:31:28;0.40;;;0.40;;
18224;SDS011;9237;48.590;8.854;2022-07-25T06:33:56;0.40;;;0.40;;
18224;SDS011;9237;48.590;8.854;2022-07-25T06:36:29;0.40;;;0.40;;
18224;SDS011;9237;48.590;8.854;2022-07-25T06:39:14;0.40;;;0.40;;
18224;SDS011;9237;48.590;8.854;2022-07-25T06:41:41;0.30;;;0.30;;
18224;SDS011;9237;48.590;8.854;2022-07-25T06:44:08;0.32;;;0.32;;
18224;SDS011;9237;48.590;8.854;2022-07-25T06:46:36;0.30;;;0.30;;
18224;SDS011;9237;48.590;8.854;2022-07-25T06:49:03;0.30;;;0.30;;
18224;SDS011;9237;48.590;8.854;2022-07-25T06:51:30;0.40;;;0.40;;
18224;SDS011;9237;48.590;8.854;2022-07-25T06:53:57;0.30;;;0.30;;
18224;SDS011;9237;48.590;8.854;2022-07-25T06:56:24;0.40;;;0.40;;
18224;SDS011;9237;48.590;8.854;2022-07-25T06:58:55;0.30;;;0.30;;
18224;SDS011;9237;48.590;8.854;2022-07-25T07:01:22;0.30;;;0.30;;
18224;SDS011;9237;48.590;8.854;2022-07-25T07:03:50;0.30;;;0.30;;
18224;SDS011;9237;48.590;8.854;2022-07-25T07:06:17;0.30;;;0.30;;
18224;SDS011;9237;48.590;8.854;2022-07-25T07:08:44;0.30;;;0.30;;
18224;SDS011;9237;48.590;8.854;2022-07-25T07:11:11;0.30;;;0.30;;
18224;SDS011;9237;48.590;8.854;2022-07-25T07:13:39;0.30;;;0.30;;
18224;SDS011;9237;48.590;8.854;2022-07-25T07:16:06;0.30;;;0.30;;
18224;SDS011;9237;48.590;8.854;2022-07-25T07:18:34;0.30;;;0.30;;
18224;SDS011;9237;48.590;8.854;2022-07-25T07:21:02;0.32;;;0.32;;
18224;SDS011;9237;48.590;8.854;2022-07-25T07:23:29;0.20;;;0.20;;
18224;SDS011;9237;48.590;8.854;2022-07-25T07:25:56;0.30;;;0.30;;
18224;SDS011;9237;48.590;8.854;2022-07-25T07:28:23;0.20;;;0.20;;
18224;SDS011;9237;48.590;8.854;2022-07-25T07:30:50;0.30;;;0.30;;
18224;SDS011;9237;48.590;8.854;2022-07-25T07:33:17;0.20;;;0.20;;
18224;SDS011;9237;48.590;8.854;2022-07-25T07:35:44;0.30;;;0.30;;
18224;SDS011;9237;48.590;8.854;2022-07-25T07:38:12;0.20;;;0.20;;
18224;SDS011;9237;48.590;8.854;2022-07-25T07:40:39;0.20;;;0.20;;
18224;SDS011;9237;48.590;8.854;2022-07-25T07:43:06;0.20;;;0.20;;
18224;SDS011;9237;48.590;8.854;2022-07-25T07:45:33;0.20;;;0.20;;
18224;SDS011;9237;48.590;8.854;2022-07-25T07:48:00;0.20;;;0.20;;
18224;SDS011;9237;48.590;8.854;2022-07-25T07:50:27;0.20;;;0.20;;
18224;SDS011;9237;48.590;8.854;2022-07-25T07:52:54;0.20;;;0.20;;
18224;SDS011;9237;48.590;8.854;2022-07-25T07:55:23;0.20;;;0.20;;
18224;SDS011;9237;48.590;8.854;2022-07-25T07:58:08;0.20;;;0.20;;
18224;SDS011;9237;48.590;8.854;2022-07-25T08:00:35;0.20;;;0.20;;
18224;SDS011;9237;48.590;8.854;2022-07-25T08:03:03;0.20;;;0.20;;
18224;SDS011;9237;48.590;8.854;2022-07-25T08:05:32;0.20;;;0.20;;
18224;SDS011;9237;48.590;8.854;2022-07-25T08:08:00;0.20;;;0.20;;
18224;SDS011;9237;48.590;8.854;2022-07-25T08:10:29;0.20;;;0.20;;
18224;SDS011;9237;48.590;8.854;2022-07-25T08:12:59;0.20;;;0.20;;
18224;SDS011;9237;48.590;8.854;2022-07-25T08:15:27;0.20;;;0.20;;
18224;SDS011;9237;48.590;8.854;2022-07-25T08:17:54;0.20;;;0.20;;
18224;SDS011;9237;48.590;8.854;2022-07-25T08:20:21;0.20;;;0.20;;
18224;SDS011;9237;48.590;8.854;2022-07-25T08:22:48;0.20;;;0.20;;
18224;SDS011;9237;48.590;8.854;2022-07-25T08:25:17;0.20;;;0.20;;
18224;SDS011;9237;48.590;8.854;2022-07-25T08:27:47;0.20;;;0.20;;
18224;SDS011;9237;48.590;8.854;2022-07-25T08:30:15;0.20;;;0.20;;
18224;SDS011;9237;48.590;8.854;2022-07-25T08:32:46;0.20;;;0.20;;
18224;SDS011;9237;48.590;8.854;2022-07-25T08:35:15;0.20;;;0.20;;
18224;SDS011;9237;48.590;8.854;2022-07-25T08:37:43;0.20;;;0.20;;
18224;SDS011;9237;48.590;8.854;2022-07-25T08:40:10;0.20;;;0.20;;
18224;SDS011;9237;48.590;8.854;2022-07-25T08:42:38;0.10;;;0.10;;
18224;SDS011;9237;48.590;8.854;2022-07-25T08:45:08;0.20;;;0.20;;
18224;SDS011;9237;48.590;8.854;2022-07-25T08:47:38;0.20;;;0.20;;
18224;SDS011;9237;48.590;8.854;2022-07-25T08:50:06;0.15;;;0.15;;
18224;SDS011;9237;48.590;8.854;2022-07-25T08:52:36;0.10;;;0.10;;
18224;SDS011;9237;48.590;8.854;2022-07-25T08:55:04;0.20;;;0.20;;
18224;SDS011;9237;48.590;8.854;2022-07-25T08:57:33;0.20;;;0.20;;
18224;SDS011;9237;48.590;8.854;2022-07-25T09:00:01;0.10;;;0.10;;
18224;SDS011;9237;48.590;8.854;2022-07-25T09:02:32;0.13;;;0.13;;
18224;SDS011;9237;48.590;8.854;2022-07-25T09:04:59;0.20;;;0.20;;
18224;SDS011;9237;48.590;8.854;2022-07-25T09:07:29;0.20;;;0.20;;
18224;SDS011;9237;48.590;8.854;2022-07-25T09:09:57;0.20;;;0.20;;
18224;SDS011;9237;48.590;8.854;2022-07-25T09:12:25;0.20;;;0.20;;
18224;SDS011;9237;48.590;8.854;2022-07-25T09:14:53;0.17;;;0.17;;
18224;SDS011;9237;48.590;8.854;2022-07-25T09:17:20;0.10;;;0.10;;
18224;SDS011;9237;48.590;8.854;2022-07-25T09:19:52;0.10;;;0.10;;
18224;SDS011;9237;48.590;8.854;2022-07-25T09:22:19;0.10;;;0.10;;
18224;SDS011;9237;48.590;8.854;2022-07-25T09:24:46;0.15;;;0.15;;
18224;SDS011;9237;48.590;8.854;2022-07-25T09:27:14;0.10;;;0.10;;
18224;SDS011;9237;48.590;8.854;2022-07-25T09:29:42;0.20;;;0.20;;
18224;SDS011;9237;48.590;8.854;2022-07-25T09:32:13;0.10;;;0.10;;
18224;SDS011;9237;48.590;8.854;2022-07-25T09:34:43;0.20;;;0.20;;
18224;SDS011;9237;48.590;8.854;2022-07-25T09:37:13;0.20;;;0.20;;
18224;SDS011;9237;48.590;8.854;2022-07-25T09:39:42;0.20;;;0.20;;
18224;SDS011;9237;48.590;8.854;2022-07-25T09:42:17;0.20;;;0.20;;
18224;SDS011;9237;48.590;8.854;2022-07-25T09:44:56;0.20;;;0.20;;
18224;SDS011;9237;48.590;8.854;2022-07-25T09:47:28;0.20;;;0.20;;
18224;SDS011;9237;48.590;8.854;2022-07-25T09:49:55;0.20;;;0.20;;
18224;SDS011;9237;48.590;8.854;2022-07-25T09:52:24;0.20;;;0.20;;
18224;SDS011;9237;48.590;8.854;2022-07-25T09:54:51;0.13;;;0.13;;
18224;SDS011;9237;48.590;8.854;2022-07-25T09:57:19;0.20;;;0.20;;
18224;SDS011;9237;48.590;8.854;2022-07-25T09:59:47;0.13;;;0.13;;
18224;SDS011;9237;48.590;8.854;2022-07-25T10:02:16;0.10;;;0.10;;
18224;SDS011;9237;48.590;8.854;2022-07-25T10:04:58;0.20;;;0.20;;
18224;SDS011;9237;48.590;8.854;2022-07-25T10:07:37;0.20;;;0.20;;
18224;SDS011;9237;48.590;8.854;2022-07-25T10:10:05;0.20;;;0.20;;
18224;SDS011;9237;48.590;8.854;2022-07-25T10:12:32;0.20;;;0.20;;
18224;SDS011;9237;48.590;8.854;2022-07-25T10:15:03;0.20;;;0.20;;
18224;SDS011;9237;48.590;8.854;2022-07-25T10:17:32;0.20;;;0.20;;
18224;SDS011;9237;48.590;8.854;2022-07-25T10:20:00;0.20;;;0.20;;
18224;SDS011;9237;48.590;8.854;2022-07-25T10:22:36;0.20;;;0.20;;
18224;SDS011;9237;48.590;8.854;2022-07-25T10:25:09;0.20;;;0.20;;
18224;SDS011;9237;48.590;8.854;2022-07-25T10:27:42;0.20;;;0.20;;
18224;SDS011;9237;48.590;8.854;2022-07-25T10:30:21;0.10;;;0.10;;
18224;SDS011;9237;48.590;8.854;2022-07-25T10:32:50;0.10;;;0.10;;
18224;SDS011;9237;48.590;8.854;2022-07-25T10:35:21;0.10;;;0.10;;
18224;SDS011;9237;48.590;8.854;2022-07-25T10:37:51;0.10;;;0.10;;
18224;SDS011;9237;48.590;8.854;2022-07-25T10:40:28;0.10;;;0.10;;
18224;SDS011;9237;48.590;8.854;2022-07-25T10:43:05;0.10;;;0.10;;
18224;SDS011;9237;48.590;8.854;2022-07-25T10:45:37;0.10;;;0.10;;
18224;SDS011;9237;48.590;8.854;2022-07-25T10:48:08;0.17;;;0.17;;
18224;SDS011;9237;48.590;8.854;2022-07-25T10:50:47;0.17;;;0.17;;
18224;SDS011;9237;48.590;8.854;2022-07-25T10:53:27;0.10;;;0.10;;
18224;SDS011;9237;48.590;8.854;2022-07-25T10:55:57;0.10;;;0.10;;
18224;SDS011;9237;48.590;8.854;2022-07-25T10:58:24;0.10;;;0.10;;
18224;SDS011;9237;48.590;8.854;2022-07-25T11:00:51;0.10;;;0.10;;
18224;SDS011;9237;48.590;8.854;2022-07-25T11:03:19;0.15;;;0.15;;
18224;SDS011;9237;48.590;8.854;2022-07-25T11:05:46;0.15;;;0.15;;
18224;SDS011;9237;48.590;8.854;2022-07-25T11:08:15;0.13;;;0.13;;
18224;SDS011;9237;48.590;8.854;2022-07-25T11:10:46;0.20;;;0.20;;
18224;SDS011;9237;48.590;8.854;2022-07-25T11:13:16;0.20;;;0.20;;
18224;SDS011;9237;48.590;8.854;2022-07-25T11:15:43;0.20;;;0.20;;
18224;SDS011;9237;48.590;8.854;2022-07-25T11:18:11;0.10;;;0.10;;
18224;SDS011;9237;48.590;8.854;2022-07-25T11:20:38;0.10;;;0.10;;
18224;SDS011;9237;48.590;8.854;2022-07-25T11:23:05;0.20;;;0.20;;
18224;SDS011;9237;48.590;8.854;2022-07-25T11:25:32;0.10;;;0.10;;
18224;SDS011;9237;48.590;8.854;2022-07-25T11:28:00;0.10;;;0.10;;
18224;SDS011;9237;48.590;8.854;2022-07-25T11:30:28;0.17;;;0.17;;
18224;SDS011;9237;48.590;8.854;2022-07-25T11:32:55;0.10;;;0.10;;
18224;SDS011;9237;48.590;8.854;2022-07-25T11:35:25;0.20;;;0.20;;
18224;SDS011;9237;48.590;8.854;2022-07-25T11:37:55;0.10;;;0.10;;
18224;SDS011;9237;48.590;8.854;2022-07-25T11:40:24;0.20;;;0.20;;
18224;SDS011;9237;48.590;8.854;2022-07-25T11:42:51;0.10;;;0.10;;
18224;SDS011;9237;48.590;8.854;2022-07-25T11:45:21;0.10;;;0.10;;
18224;SDS011;9237;48.590;8.854;2022-07-25T11:47:49;0.20;;;0.20;;
18224;SDS011;9237;48.590;8.854;2022-07-25T11:50:29;0.20;;;0.20;;
18224;SDS011;9237;48.590;8.854;2022-07-25T11:52:57;0.20;;;0.20;;
18224;SDS011;9237;48.590;8.854;2022-07-25T11:55:27;0.20;;;0.20;;
18224;SDS011;9237;48.590;8.854;2022-07-25T11:57:56;0.20;;;0.20;;
18224;SDS011;9237;48.590;8.854;2022-07-25T12:00:26;0.20;;;0.20;;
18224;SDS011;9237;48.590;8.854;2022-07-25T12:02:54;0.20;;;0.20;;
18224;SDS011;9237;48.590;8.854;2022-07-25T12:05:32;0.20;;;0.20;;
18224;SDS011;9237;48.590;8.854;2022-07-25T12:08:06;0.20;;;0.20;;
18224;SDS011;9237;48.590;8.854;2022-07-25T12:10:35;0.20;;;0.20;;
18224;SDS011;9237;48.590;8.854;2022-07-25T12:13:03;0.20;;;0.20;;
18224;SDS011;9237;48.590;8.854;2022-07-25T12:15:34;0.10;;;0.10;;
18224;SDS011;9237;48.590;8.854;2022-07-25T12:18:02;0.15;;;0.15;;
18224;SDS011;9237;48.590;8.854;2022-07-25T12:20:30;0.20;;;0.20;;
18224;SDS011;9237;48.590;8.854;2022-07-25T12:23:00;0.20;;;0.20;;
18224;SDS011;9237;48.590;8.854;2022-07-25T12:25:28;0.20;;;0.20;;
18224;SDS011;9237;48.590;8.854;2022-07-25T12:27:56;0.20;;;0.20;;
18224;SDS011;9237;48.590;8.854;2022-07-25T12:30:23;0.20;;;0.20;;
18224;SDS011;9237;48.590;8.854;2022-07-25T12:32:53;0.20;;;0.20;;
18224;SDS011;9237;48.590;8.854;2022-07-25T12:35:20;0.20;;;0.20;;
18224;SDS011;9237;48.590;8.854;2022-07-25T12:37:47;0.30;;;0.30;;
18224;SDS011;9237;48.590;8.854;2022-07-25T12:40:15;0.30;;;0.30;;
18224;SDS011;9237;48.590;8.854;2022-07-25T12:42:43;0.22;;;0.22;;
18224;SDS011;9237;48.590;8.854;2022-07-25T12:45:10;0.20;;;0.20;;
18224;SDS011;9237;48.590;8.854;2022-07-25T12:47:38;0.20;;;0.20;;
18224;SDS011;9237;48.590;8.854;2022-07-25T12:50:07;0.20;;;0.20;;
18224;SDS011;9237;48.590;8.854;2022-07-25T12:52:34;0.20;;;0.20;;
18224;SDS011;9237;48.590;8.854;2022-07-25T12:55:03;0.20;;;0.20;;
18224;SDS011;9237;48.590;8.854;2022-07-25T12:57:30;0.20;;;0.20;;
18224;SDS011;9237;48.590;8.854;2022-07-25T12:59:57;0.20;;;0.20;;
18224;SDS011;9237;48.590;8.854;2022-07-25T13:02:24;0.20;;;0.20;;
18224;SDS011;9237;48.590;8.854;2022-07-25T13:04:51;0.20;;;0.20;;
18224;SDS011;9237;48.590;8.854;2022-07-25T13:07:19;0.20;;;0.20;;
18224;SDS011;9237;48.590;8.854;2022-07-25T13:09:46;0.20;;;0.20;;
18224;SDS011;9237;48.590;8.854;2022-07-25T13:12:13;0.20;;;0.20;;
18224;SDS011;9237;48.590;8.854;2022-07-25T13:14:40;0.10;;;0.10;;
18224;SDS011;9237;48.590;8.854;2022-07-25T13:17:07;0.20;;;0.20;;
18224;SDS011;9237;48.590;8.854;2022-07-25T13:19:34;0.20;;;0.20;;
18224;SDS011;9237;48.590;8.854;2022-07-25T13:22:01;0.20;;;0.20;;
18224;SDS011;9237;48.590;8.854;2022-07-25T13:24:29;0.20;;;0.20;;
18224;SDS011;9237;48.590;8.854;2022-07-25T13:26:58;0.20;;;0.20;;
18224;SDS011;9237;48.590;8.854;2022-07-25T13:29:25;0.20;;;0.20;;
18224;SDS011;9237;48.590;8.854;2022-07-25T13:31:52;0.20;;;0.20;;
18224;SDS011;9237;48.590;8.854;2022-07-25T13:34:19;0.20;;;0.20;;
18224;SDS011;9237;48.590;8.854;2022-07-25T13:36:46;0.20;;;0.20;;
18224;SDS011;9237;48.590;8.854;2022-07-25T13:39:13;0.20;;;0.20;;
18224;SDS011;9237;48.590;8.854;2022-07-25T13:41:41;0.20;;;0.20;;
18224;SDS011;9237;48.590;8.854;2022-07-25T13:44:08;0.25;;;0.25;;
18224;SDS011;9237;48.590;8.854;2022-07-25T13:46:35;0.20;;;0.20;;
18224;SDS011;9237;48.590;8.854;2022-07-25T13:49:02;0.20;;;0.20;;
18224;SDS011;9237;48.590;8.854;2022-07-25T13:51:28;0.20;;;0.20;;
18224;SDS011;9237;48.590;8.854;2022-07-25T13:53:55;0.28;;;0.28;;
18224;SDS011;9237;48.590;8.854;2022-07-25T13:56:22;0.20;;;0.20;;
18224;SDS011;9237;48.590;8.854;2022-07-25T13:58:51;0.30;;;0.30;;
18224;SDS011;9237;48.590;8.854;2022-07-25T14:01:17;0.30;;;0.30;;
18224;SDS011;9237;48.590;8.854;2022-07-25T14:03:44;0.30;;;0.30;;
18224;SDS011;9237;48.590;8.854;2022-07-25T14:06:11;0.20;;;0.20;;
18224;SDS011;9237;48.590;8.854;2022-07-25T14:08:38;0.28;;;0.28;;
18224;SDS011;9237;48.590;8.854;2022-07-25T14:11:06;0.30;;;0.30;;
18224;SDS011;9237;48.590;8.854;2022-07-25T14:13:33;0.30;;;0.30;;
18224;SDS011;9237;48.590;8.854;2022-07-25T14:16:02;0.30;;;0.30;;
18224;SDS011;9237;48.590;8.854;2022-07-25T14:18:29;0.20;;;0.20;;
18224;SDS011;9237;48.590;8.854;2022-07-25T14:20:56;0.20;;;0.20;;
18224;SDS011;9237;48.590;8.854;2022-07-25T14:23:23;0.20;;;0.20;;
18224;SDS011;9237;48.590;8.854;2022-07-25T14:25:50;0.30;;;0.30;;
18224;SDS011;9237;48.590;8.854;2022-07-25T14:28:17;0.20;;;0.20;;
18224;SDS011;9237;48.590;8.854;2022-07-25T14:30:44;0.20;;;0.20;;
18224;SDS011;9237;48.590;8.854;2022-07-25T14:33:13;0.20;;;0.20;;
18224;SDS011;9237;48.590;8.854;2022-07-25T14:35:39;0.20;;;0.20;;
18224;SDS011;9237;48.590;8.854;2022-07-25T14:38:07;0.25;;;0.25;;
18224;SDS011;9237;48.590;8.854;2022-07-25T14:40:33;0.20;;;0.20;;
18224;SDS011;9237;48.590;8.854;2022-07-25T14:43:01;0.20;;;0.20;;
18224;SDS011;9237;48.590;8.854;2022-07-25T14:45:28;0.30;;;0.30;;
18224;SDS011;9237;48.590;8.854;2022-07-25T14:47:55;0.20;;;0.20;;
18224;SDS011;9237;48.590;8.854;2022-07-25T14:50:23;0.20;;;0.20;;
18224;SDS011;9237;48.590;8.854;2022-07-25T14:52:51;0.20;;;0.20;;
18224;SDS011;9237;48.590;8.854;2022-07-25T14:55:18;0.20;;;0.20;;
18224;SDS011;9237;48.590;8.854;2022-07-25T14:57:46;0.20;;;0.20;;
18224;SDS011;9237;48.590;8.854;2022-07-25T15:00:13;0.20;;;0.20;;
18224;SDS011;9237;48.590;8.854;2022-07-25T15:02:40;0.20;;;0.20;;
18224;SDS011;9237;48.590;8.854;2022-07-25T15:05:07;0.20;;;0.20;;